createdAt,value
2018-04-30T00:00:08.759Z,6.70
2018-04-30T00:01:08.763Z,5.80
2018-04-30T00:02:08.784Z,8.00
2018-04-30T00:03:08.782Z,5.60
2018-04-30T00:04:08.784Z,5.30
2018-04-30T00:05:08.789Z,3.40
2018-04-30T00:06:08.793Z,9.10
2018-04-30T00:07:08.796Z,6.00
2018-04-30T00:08:08.800Z,14.30
2018-04-30T00:09:08.802Z,7.50
2018-04-30T00:10:08.806Z,4.80
2018-04-30T00:11:08.811Z,6.30
2018-04-30T00:12:08.813Z,13.30
2018-04-30T00:13:08.818Z,5.70
2018-04-30T00:14:08.820Z,10.00
2018-04-30T00:15:08.824Z,3.50
2018-04-30T00:16:08.826Z,7.40
2018-04-30T00:17:08.831Z,6.70
2018-04-30T00:18:08.836Z,8.50
2018-04-30T00:19:08.838Z,9.30
2018-04-30T00:20:08.841Z,6.90
2018-04-30T00:21:08.848Z,5.90
2018-04-30T00:22:08.849Z,7.90
2018-04-30T00:23:08.851Z,3.60
2018-04-30T00:24:08.856Z,8.20
2018-04-30T00:25:08.858Z,5.40
2018-04-30T00:26:08.862Z,5.00
2018-04-30T00:27:08.865Z,7.40
2018-04-30T00:28:08.867Z,6.30
2018-04-30T00:29:08.871Z,6.30
2018-04-30T00:30:08.874Z,5.30
2018-04-30T00:31:08.878Z,5.30
2018-04-30T00:32:08.881Z,6.00
2018-04-30T00:33:08.885Z,5.30
2018-04-30T00:34:08.888Z,3.30
2018-04-30T00:35:08.892Z,4.10
2018-04-30T00:36:08.897Z,5.10
2018-04-30T00:37:08.897Z,5.00
2018-04-30T00:38:08.902Z,9.30
2018-04-30T00:39:08.904Z,7.20
2018-04-30T00:40:08.906Z,5.70
2018-04-30T00:41:08.910Z,6.60
2018-04-30T00:42:08.913Z,6.00
2018-04-30T00:43:08.920Z,3.70
2018-04-30T00:44:08.919Z,5.40
2018-04-30T00:45:08.923Z,5.00
2018-04-30T00:46:08.925Z,7.40
2018-04-30T00:47:08.931Z,10.40
2018-04-30T00:48:08.932Z,3.80
2018-04-30T00:49:08.935Z,7.40
2018-04-30T00:50:08.939Z,3.30
2018-04-30T00:51:08.942Z,6.30
2018-04-30T00:52:08.947Z,5.90
2018-04-30T00:53:08.948Z,5.70
2018-04-30T00:54:08.951Z,10.70
2018-04-30T00:55:08.955Z,3.40
2018-04-30T00:56:08.957Z,7.70
2018-04-30T00:57:08.960Z,7.10
2018-04-30T00:58:08.963Z,10.00
2018-04-30T00:59:08.966Z,5.20
2018-04-30T01:00:08.970Z,9.90
2018-04-30T01:01:08.972Z,4.10
2018-04-30T01:02:08.976Z,6.80
2018-04-30T01:03:08.979Z,4.70
2018-04-30T01:04:08.981Z,3.60
2018-04-30T01:05:08.984Z,6.10
2018-04-30T01:06:08.988Z,6.80
2018-04-30T01:07:08.992Z,2.80
2018-04-30T01:08:08.993Z,4.70
2018-04-30T01:09:08.997Z,7.00
2018-04-30T01:10:08.999Z,4.40
2018-04-30T01:11:09.002Z,6.70
2018-04-30T01:12:09.005Z,3.90
2018-04-30T01:13:09.007Z,6.10
2018-04-30T01:14:09.010Z,3.60
2018-04-30T01:15:09.014Z,11.00
2018-04-30T01:16:09.016Z,6.00
2018-04-30T01:17:09.019Z,8.70
2018-04-30T01:18:09.023Z,5.30
2018-04-30T01:19:09.025Z,4.80
2018-04-30T01:20:09.028Z,10.50
2018-04-30T01:21:09.031Z,16.40
2018-04-30T01:22:09.038Z,8.00
2018-04-30T01:23:09.038Z,3.90
2018-04-30T01:24:09.039Z,4.30
2018-04-30T01:25:09.042Z,5.90
2018-04-30T01:26:09.047Z,5.90
2018-04-30T01:27:09.049Z,3.30
2018-04-30T01:28:09.050Z,4.10
2018-04-30T01:29:09.053Z,9.60
2018-04-30T01:30:09.056Z,4.90
2018-04-30T01:31:09.059Z,5.10
2018-04-30T01:32:09.062Z,3.10
2018-04-30T01:33:09.064Z,3.90
2018-04-30T01:34:09.068Z,4.70
2018-04-30T01:35:09.071Z,4.40
2018-04-30T01:36:09.072Z,5.10
2018-04-30T01:37:09.077Z,6.50
2018-04-30T01:38:09.080Z,5.10
2018-04-30T01:39:09.082Z,3.00
2018-04-30T01:40:09.088Z,3.30
2018-04-30T01:41:09.093Z,3.00
2018-04-30T01:42:09.093Z,4.80
2018-04-30T01:43:09.098Z,5.70
2018-04-30T01:44:09.095Z,3.50
2018-04-30T01:45:09.099Z,10.60
2018-04-30T01:46:09.102Z,5.90
2018-04-30T01:47:09.105Z,4.00
2018-04-30T01:48:09.107Z,4.70
2018-04-30T01:49:09.109Z,5.00
2018-04-30T01:50:09.112Z,5.30
2018-04-30T01:51:09.115Z,6.90
2018-04-30T01:52:09.124Z,3.40
2018-04-30T01:53:09.120Z,4.20
2018-04-30T01:54:09.123Z,4.00
2018-04-30T01:55:09.126Z,3.50
2018-04-30T01:56:09.129Z,4.40
2018-04-30T01:57:09.132Z,6.30
2018-04-30T01:58:09.136Z,4.50
2018-04-30T01:59:09.138Z,2.80
2018-04-30T02:00:09.140Z,4.30
2018-04-30T02:01:09.142Z,9.60
2018-04-30T02:02:09.146Z,3.20
2018-04-30T02:03:09.149Z,9.10
2018-04-30T02:04:09.150Z,7.30
2018-04-30T02:05:09.153Z,6.20
2018-04-30T02:06:09.158Z,5.30
2018-04-30T02:07:09.160Z,4.20
2018-04-30T02:08:09.162Z,4.20
2018-04-30T02:09:09.165Z,3.70
2018-04-30T02:10:09.168Z,2.80
2018-04-30T02:11:09.171Z,4.40
2018-04-30T02:12:09.173Z,4.70
2018-04-30T02:13:09.176Z,2.90
2018-04-30T02:14:09.179Z,6.80
2018-04-30T02:15:09.182Z,5.10
2018-04-30T02:16:09.184Z,2.90
2018-04-30T02:17:09.188Z,6.70
2018-04-30T02:18:09.190Z,4.10
2018-04-30T02:19:09.194Z,3.50
2018-04-30T02:20:09.195Z,7.80
2018-04-30T02:21:09.198Z,6.80
2018-04-30T02:22:09.200Z,3.90
2018-04-30T02:23:09.290Z,4.40
2018-04-30T02:24:09.205Z,3.90
2018-04-30T02:25:09.213Z,4.60
2018-04-30T02:26:09.210Z,5.20
2018-04-30T02:27:09.213Z,4.00
2018-04-30T02:28:09.215Z,6.60
2018-04-30T02:29:09.218Z,5.00
2018-04-30T02:30:09.221Z,3.20
2018-04-30T02:31:09.224Z,3.30
2018-04-30T02:32:09.226Z,5.70
2018-04-30T02:33:09.230Z,3.70
2018-04-30T02:34:09.235Z,5.70
2018-04-30T02:35:09.236Z,7.70
2018-04-30T02:36:09.235Z,4.90
2018-04-30T02:37:09.240Z,7.00
2018-04-30T02:38:09.241Z,6.40
2018-04-30T02:39:09.244Z,3.70
2018-04-30T02:40:09.245Z,4.30
2018-04-30T02:41:09.250Z,8.50
2018-04-30T02:42:09.253Z,5.10
2018-04-30T02:43:09.254Z,2.70
2018-04-30T02:44:09.256Z,3.50
2018-04-30T02:45:09.259Z,5.80
2018-04-30T02:46:09.261Z,2.70
2018-04-30T02:47:09.264Z,4.50
2018-04-30T02:48:09.266Z,4.00
2018-04-30T02:49:09.270Z,5.20
2018-04-30T02:50:09.272Z,9.50
2018-04-30T02:51:09.274Z,19.70
2018-04-30T02:52:09.275Z,13.20
2018-04-30T02:53:09.276Z,4.60
2018-04-30T02:54:09.279Z,9.90
2018-04-30T02:55:09.282Z,8.60
2018-04-30T02:56:09.283Z,9.70
2018-04-30T02:57:09.289Z,8.30
2018-04-30T02:58:09.288Z,6.00
2018-04-30T02:59:09.289Z,10.20
2018-04-30T03:00:09.290Z,8.20
2018-04-30T03:01:09.293Z,13.90
2018-04-30T03:02:09.294Z,8.70
2018-04-30T03:03:09.296Z,12.20
2018-04-30T03:04:09.297Z,15.60
2018-04-30T03:05:09.300Z,5.30
2018-04-30T03:06:09.300Z,7.90
2018-04-30T03:07:09.301Z,8.00
2018-04-30T03:08:09.302Z,6.00
2018-04-30T03:09:09.305Z,11.70
2018-04-30T03:10:09.305Z,8.50
2018-04-30T03:11:09.306Z,6.70
2018-04-30T03:12:09.309Z,5.90
2018-04-30T03:13:09.308Z,6.10
2018-04-30T03:14:09.309Z,6.50
2018-04-30T03:15:09.311Z,6.10
2018-04-30T03:16:09.309Z,11.00
2018-04-30T03:17:09.313Z,8.90
2018-04-30T03:18:09.314Z,9.10
2018-04-30T03:19:09.315Z,4.80
2018-04-30T03:20:09.314Z,11.80
2018-04-30T03:21:09.315Z,4.00
2018-04-30T03:22:09.317Z,5.40
2018-04-30T03:23:09.316Z,8.00
2018-04-30T03:24:09.317Z,8.50
2018-04-30T03:25:09.317Z,3.90
2018-04-30T03:26:09.318Z,5.70
2018-04-30T03:27:09.319Z,5.80
2018-04-30T03:28:09.318Z,5.80
2018-04-30T03:29:09.320Z,8.80
2018-04-30T03:30:09.320Z,3.80
2018-04-30T03:31:09.422Z,10.80
2018-04-30T03:32:09.320Z,5.00
2018-04-30T03:33:09.321Z,8.10
2018-04-30T03:34:09.321Z,8.00
2018-04-30T03:35:09.322Z,8.60
2018-04-30T03:36:09.322Z,6.80
2018-04-30T03:37:09.322Z,7.10
2018-04-30T03:38:09.323Z,6.70
2018-04-30T03:39:09.323Z,11.70
2018-04-30T03:40:09.325Z,8.30
2018-04-30T03:41:09.323Z,6.00
2018-04-30T03:42:09.325Z,4.40
2018-04-30T03:43:09.324Z,2.50
2018-04-30T03:44:09.322Z,3.70
2018-04-30T03:45:09.322Z,2.60
2018-04-30T03:46:09.324Z,5.20
2018-04-30T03:47:09.323Z,6.50
2018-04-30T03:48:09.322Z,2.20
2018-04-30T03:49:09.323Z,4.10
2018-04-30T03:50:09.323Z,1.50
2018-04-30T03:51:09.323Z,2.10
2018-04-30T03:52:09.322Z,4.10
2018-04-30T03:53:09.322Z,5.10
2018-04-30T03:54:09.322Z,8.70
2018-04-30T03:55:09.322Z,3.20
2018-04-30T03:56:09.321Z,2.80
2018-04-30T03:57:09.322Z,5.30
2018-04-30T03:58:09.325Z,4.60
2018-04-30T03:59:09.322Z,3.80
2018-04-30T04:00:09.322Z,1.80
2018-04-30T04:01:09.309Z,1.70
2018-04-30T04:02:09.307Z,7.30
2018-04-30T04:03:09.389Z,2.50
2018-04-30T04:04:09.306Z,2.20
2018-04-30T04:05:09.306Z,5.80
2018-04-30T04:06:09.305Z,3.60
2018-04-30T04:07:09.305Z,6.90
2018-04-30T04:08:09.303Z,3.00
2018-04-30T04:09:09.303Z,3.60
2018-04-30T04:10:09.303Z,3.40
2018-04-30T04:11:09.303Z,4.20
2018-04-30T04:12:09.301Z,2.80
2018-04-30T04:13:09.301Z,2.60
2018-04-30T04:14:09.301Z,1.70
2018-04-30T04:15:09.300Z,3.10
2018-04-30T04:16:09.299Z,5.20
2018-04-30T04:17:09.298Z,3.90
2018-04-30T04:18:09.297Z,2.50
2018-04-30T04:19:09.297Z,1.20
2018-04-30T04:20:09.295Z,2.40
2018-04-30T04:21:09.295Z,10.60
2018-04-30T04:22:09.293Z,2.20
2018-04-30T04:23:09.294Z,2.50
2018-04-30T04:24:09.292Z,1.80
2018-04-30T04:25:09.290Z,7.70
2018-04-30T04:26:09.291Z,1.30
2018-04-30T04:27:09.291Z,1.70
2018-04-30T04:28:09.288Z,2.30
2018-04-30T04:29:09.287Z,7.50
2018-04-30T04:30:09.287Z,2.80
2018-04-30T04:31:09.288Z,3.90
2018-04-30T04:32:09.284Z,3.60
2018-04-30T04:33:09.285Z,1.40
2018-04-30T04:34:09.284Z,1.90
2018-04-30T04:35:09.281Z,1.60
2018-04-30T04:36:09.281Z,1.60
2018-04-30T04:37:09.280Z,2.10
2018-04-30T04:38:09.277Z,4.10
2018-04-30T04:39:09.278Z,1.80
2018-04-30T04:40:09.275Z,2.00
2018-04-30T04:41:09.274Z,1.70
2018-04-30T04:42:09.273Z,5.80
2018-04-30T04:43:09.276Z,2.50
2018-04-30T04:44:09.271Z,3.30
2018-04-30T04:45:09.269Z,1.50
2018-04-30T04:46:09.269Z,4.00
2018-04-30T04:47:09.269Z,3.70
2018-04-30T04:48:09.266Z,2.70
2018-04-30T04:49:09.266Z,1.70
2018-04-30T04:50:09.264Z,1.10
2018-04-30T04:51:09.263Z,1.10
2018-04-30T04:52:09.261Z,1.80
2018-04-30T04:53:09.260Z,1.80
2018-04-30T04:54:09.259Z,2.70
2018-04-30T04:55:09.256Z,1.80
2018-04-30T04:56:09.256Z,1.30
2018-04-30T04:57:09.255Z,1.30
2018-04-30T04:58:09.258Z,2.30
2018-04-30T04:59:09.256Z,1.70
2018-04-30T05:00:09.255Z,1.60
2018-04-30T05:01:09.249Z,3.20
2018-04-30T05:02:09.249Z,1.10
2018-04-30T05:03:09.249Z,4.60
2018-04-30T05:04:09.245Z,1.70
2018-04-30T05:05:09.245Z,1.90
2018-04-30T05:06:09.243Z,1.10
2018-04-30T05:07:09.247Z,1.20
2018-04-30T05:08:09.242Z,1.90
2018-04-30T05:09:09.239Z,1.60
2018-04-30T05:10:09.243Z,1.80
2018-04-30T05:11:09.237Z,1.30
2018-04-30T05:12:09.237Z,2.50
2018-04-30T05:13:09.234Z,1.00
2018-04-30T05:14:09.237Z,1.00
2018-04-30T05:15:09.232Z,1.10
2018-04-30T05:16:09.230Z,1.10
2018-04-30T05:17:09.229Z,1.20
2018-04-30T05:18:09.228Z,1.00
2018-04-30T05:19:09.228Z,1.20
2018-04-30T05:20:09.224Z,1.20
2018-04-30T05:21:09.223Z,1.30
2018-04-30T05:22:09.222Z,1.70
2018-04-30T05:23:09.222Z,1.60
2018-04-30T05:24:09.220Z,1.00
2018-04-30T05:25:09.221Z,1.80
2018-04-30T05:26:09.217Z,1.10
2018-04-30T05:27:09.216Z,1.90
2018-04-30T05:28:09.214Z,1.40
2018-04-30T05:29:09.213Z,0.90
2018-04-30T05:30:09.212Z,1.20
2018-04-30T05:31:09.212Z,1.00
2018-04-30T05:32:09.209Z,1.10
2018-04-30T05:33:09.208Z,1.30
2018-04-30T05:34:09.207Z,1.00
2018-04-30T05:35:09.208Z,1.00
2018-04-30T05:36:09.208Z,1.20
2018-04-30T05:37:09.203Z,1.00
2018-04-30T05:38:09.223Z,1.60
2018-04-30T05:39:09.201Z,3.10
2018-04-30T05:40:09.200Z,1.60
2018-04-30T05:41:09.202Z,1.10
2018-04-30T05:42:09.293Z,1.00
2018-04-30T05:43:09.310Z,1.10
2018-04-30T05:44:09.215Z,3.10
2018-04-30T05:45:09.194Z,0.90
2018-04-30T05:46:09.192Z,2.60
2018-04-30T05:47:09.230Z,1.10
2018-04-30T05:48:09.370Z,1.00
2018-04-30T05:49:09.192Z,0.90
2018-04-30T05:50:09.189Z,1.60
2018-04-30T05:51:09.322Z,0.90
2018-04-30T05:52:09.187Z,1.10
2018-04-30T05:53:09.184Z,1.10
2018-04-30T05:54:09.183Z,1.40
2018-04-30T05:55:09.220Z,1.00
2018-04-30T05:56:09.186Z,1.20
2018-04-30T05:57:09.180Z,3.20
2018-04-30T05:58:09.180Z,0.90
2018-04-30T05:59:09.185Z,1.10
2018-04-30T06:00:09.176Z,1.70
2018-04-30T06:01:09.174Z,2.00
2018-04-30T06:02:09.175Z,2.50
2018-04-30T06:03:09.174Z,2.20
2018-04-30T06:04:09.171Z,1.10
2018-04-30T06:05:09.190Z,2.30
2018-04-30T06:06:09.190Z,3.20
2018-04-30T06:07:09.196Z,0.90
2018-04-30T06:08:09.251Z,1.60
2018-04-30T06:09:09.192Z,1.10
2018-04-30T06:10:09.185Z,0.90
2018-04-30T06:11:09.164Z,1.00
2018-04-30T06:12:09.191Z,1.10
2018-04-30T06:13:09.162Z,1.00
2018-04-30T06:14:09.158Z,1.00
2018-04-30T06:15:09.178Z,1.00
2018-04-30T06:16:09.155Z,1.00
2018-04-30T06:17:09.154Z,3.90
2018-04-30T06:18:09.218Z,1.40
2018-04-30T06:19:09.152Z,2.70
2018-04-30T06:20:09.151Z,1.10
2018-04-30T06:21:09.154Z,1.80
2018-04-30T06:22:09.148Z,1.10
2018-04-30T06:23:09.148Z,3.70
2018-04-30T06:24:09.145Z,1.20
2018-04-30T06:25:09.150Z,0.90
2018-04-30T06:26:09.143Z,3.00
2018-04-30T06:27:09.142Z,1.00
2018-04-30T06:28:09.140Z,1.60
2018-04-30T06:29:09.147Z,1.60
2018-04-30T06:30:09.139Z,1.20
2018-04-30T06:31:09.138Z,1.60
2018-04-30T06:32:09.136Z,1.00
2018-04-30T06:33:09.136Z,0.90
2018-04-30T06:34:09.133Z,1.00
2018-04-30T06:35:09.132Z,2.90
2018-04-30T06:36:09.129Z,1.10
2018-04-30T06:37:09.130Z,1.10
2018-04-30T06:38:09.129Z,1.00
2018-04-30T06:39:09.131Z,1.10
2018-04-30T06:40:09.125Z,1.10
2018-04-30T06:41:09.124Z,1.00
2018-04-30T06:42:09.123Z,0.90
2018-04-30T06:43:09.123Z,2.00
2018-04-30T06:44:09.168Z,0.90
2018-04-30T06:45:09.120Z,0.90
2018-04-30T06:46:09.120Z,1.10
2018-04-30T06:47:09.118Z,0.80
2018-04-30T06:48:09.122Z,0.90
2018-04-30T06:49:09.115Z,1.50
2018-04-30T06:50:09.115Z,0.90
2018-04-30T06:51:09.381Z,0.90
2018-04-30T06:52:09.112Z,0.90
2018-04-30T06:53:09.111Z,1.00
2018-04-30T06:54:09.110Z,1.00
2018-04-30T06:55:09.109Z,2.10
2018-04-30T06:56:09.107Z,2.10
2018-04-30T06:57:09.107Z,2.60
2018-04-30T06:58:09.108Z,1.00
2018-04-30T06:59:09.109Z,1.00
2018-04-30T07:00:09.109Z,1.10
2018-04-30T07:01:09.110Z,1.00
2018-04-30T07:02:09.114Z,1.10
2018-04-30T07:03:09.119Z,1.10
2018-04-30T07:04:09.126Z,1.50
2018-04-30T07:05:09.125Z,1.50
2018-04-30T07:06:09.129Z,1.10
2018-04-30T07:07:09.133Z,1.20
2018-04-30T07:08:09.137Z,1.20
2018-04-30T07:09:09.163Z,1.60
2018-04-30T07:10:09.145Z,1.10
2018-04-30T07:11:09.150Z,1.80
2018-04-30T07:12:09.150Z,1.20
2018-04-30T07:13:09.152Z,1.20
2018-04-30T07:14:09.157Z,2.00
2018-04-30T07:15:09.162Z,1.00
2018-04-30T07:16:09.161Z,1.10
2018-04-30T07:17:09.165Z,1.20
2018-04-30T07:18:09.168Z,1.10
2018-04-30T07:19:09.171Z,1.20
2018-04-30T07:20:09.213Z,1.70
2018-04-30T07:21:09.176Z,1.00
2018-04-30T07:22:09.179Z,1.00
2018-04-30T07:23:09.191Z,0.90
2018-04-30T07:24:09.187Z,1.40
2018-04-30T07:25:09.186Z,1.10
2018-04-30T07:26:09.189Z,1.90
2018-04-30T07:27:09.192Z,1.20
2018-04-30T07:28:09.293Z,1.40
2018-04-30T07:29:09.195Z,4.20
2018-04-30T07:30:09.197Z,5.10
2018-04-30T07:31:09.203Z,1.30
2018-04-30T07:32:09.200Z,1.20
2018-04-30T07:33:09.256Z,1.10
2018-04-30T07:34:09.205Z,1.10
2018-04-30T07:35:09.207Z,1.20
2018-04-30T07:36:09.211Z,1.60
2018-04-30T07:37:09.210Z,1.20
2018-04-30T07:38:09.213Z,6.60
2018-04-30T07:39:09.232Z,0.90
2018-04-30T07:40:09.216Z,1.00
2018-04-30T07:41:09.217Z,1.30
2018-04-30T07:42:09.219Z,1.00
2018-04-30T07:43:09.225Z,1.00
2018-04-30T07:44:09.223Z,1.20
2018-04-30T07:45:09.223Z,1.60
2018-04-30T07:46:09.225Z,1.20
2018-04-30T07:47:09.227Z,2.70
2018-04-30T07:48:09.228Z,1.10
2018-04-30T07:49:09.236Z,1.40
2018-04-30T07:50:09.232Z,1.20
2018-04-30T07:51:09.234Z,1.10
2018-04-30T07:52:09.235Z,1.40
2018-04-30T07:53:09.238Z,1.00
2018-04-30T07:54:09.239Z,1.90
2018-04-30T07:55:09.241Z,1.40
2018-04-30T07:56:09.243Z,1.10
2018-04-30T07:57:09.295Z,2.80
2018-04-30T07:58:09.248Z,1.20
2018-04-30T07:59:09.252Z,1.60
2018-04-30T08:00:09.253Z,1.90
2018-04-30T08:01:09.256Z,2.20
2018-04-30T08:02:09.261Z,1.00
2018-04-30T08:03:09.347Z,1.50
2018-04-30T08:04:09.266Z,2.10
2018-04-30T08:05:09.269Z,9.00
2018-04-30T08:06:09.274Z,4.40
2018-04-30T08:07:09.277Z,2.40
2018-04-30T08:08:09.281Z,1.70
2018-04-30T08:09:09.435Z,1.20
2018-04-30T08:10:09.337Z,3.60
2018-04-30T08:11:09.318Z,1.50
2018-04-30T08:12:09.323Z,1.10
2018-04-30T08:13:09.308Z,1.10
2018-04-30T08:14:09.316Z,1.50
2018-04-30T08:15:09.323Z,1.30
2018-04-30T08:16:09.330Z,1.10
2018-04-30T08:17:09.337Z,1.10
2018-04-30T08:18:09.349Z,1.00
2018-04-30T08:19:09.353Z,1.00
2018-04-30T08:20:09.360Z,1.00
2018-04-30T08:21:09.368Z,2.70
2018-04-30T08:22:09.374Z,1.50
2018-04-30T08:23:09.382Z,3.10
2018-04-30T08:24:09.390Z,1.50
2018-04-30T08:25:09.397Z,1.40
2018-04-30T08:26:09.407Z,1.10
2018-04-30T08:27:09.416Z,1.30
2018-04-30T08:28:09.455Z,1.60
2018-04-30T08:29:09.437Z,1.20
2018-04-30T08:30:09.445Z,2.00
2018-04-30T08:31:09.452Z,1.10
2018-04-30T08:32:09.466Z,1.20
2018-04-30T08:33:09.471Z,1.20
2018-04-30T08:34:09.481Z,1.10
2018-04-30T08:35:09.515Z,1.80
2018-04-30T08:36:09.502Z,1.10
2018-04-30T08:37:09.515Z,1.30
2018-04-30T08:38:09.529Z,1.00
2018-04-30T08:39:09.536Z,1.10
2018-04-30T08:40:09.548Z,1.20
2018-04-30T08:41:09.636Z,1.40
2018-04-30T08:42:09.572Z,2.40
2018-04-30T08:43:09.584Z,1.10
2018-04-30T08:44:09.596Z,1.60
2018-04-30T08:45:09.621Z,1.00
2018-04-30T08:46:09.621Z,2.40
2018-04-30T08:47:09.633Z,1.20
2018-04-30T08:48:09.644Z,1.20
2018-04-30T08:49:09.658Z,1.20
2018-04-30T08:50:09.669Z,2.10
2018-04-30T08:51:09.682Z,1.30
2018-04-30T08:52:09.726Z,1.10
2018-04-30T08:53:09.705Z,2.50
2018-04-30T08:54:09.717Z,1.20
2018-04-30T08:55:09.733Z,1.30
2018-04-30T08:56:09.744Z,1.20
2018-04-30T08:57:09.758Z,1.20
2018-04-30T08:58:09.770Z,1.30
2018-04-30T08:59:09.784Z,1.20
2018-04-30T09:00:09.796Z,1.20
2018-04-30T09:01:10.404Z,1.50
2018-04-30T09:02:09.824Z,1.20
2018-04-30T09:03:09.840Z,1.80
2018-04-30T09:04:09.852Z,1.30
2018-04-30T09:05:09.866Z,1.00
2018-04-30T09:06:09.880Z,1.30
2018-04-30T09:07:09.893Z,1.20
2018-04-30T09:08:09.908Z,1.30
2018-04-30T09:09:09.922Z,3.80
2018-04-30T09:10:09.937Z,1.10
2018-04-30T09:11:09.960Z,1.00
2018-04-30T09:12:09.965Z,1.20
2018-04-30T09:13:09.989Z,1.00
2018-04-30T09:14:09.993Z,1.10
2018-04-30T09:15:10.009Z,1.00
2018-04-30T09:16:10.021Z,1.10
2018-04-30T09:17:10.039Z,1.10
2018-04-30T09:18:10.049Z,3.70
2018-04-30T09:19:10.063Z,1.00
2018-04-30T09:20:10.076Z,1.20
2018-04-30T09:21:10.090Z,1.10
2018-04-30T09:22:10.105Z,1.80
2018-04-30T09:23:10.118Z,1.10
2018-04-30T09:24:10.130Z,1.20
2018-04-30T09:25:10.144Z,1.40
2018-04-30T09:26:10.156Z,1.00
2018-04-30T09:27:10.172Z,1.10
2018-04-30T09:28:10.266Z,1.10
2018-04-30T09:29:10.216Z,1.90
2018-04-30T09:30:12.214Z,2.20
2018-04-30T09:31:10.224Z,1.30
2018-04-30T09:32:10.236Z,1.30
2018-04-30T09:33:10.250Z,1.10
2018-04-30T09:34:10.266Z,1.50
2018-04-30T09:35:10.279Z,2.50
2018-04-30T09:36:10.290Z,1.40
2018-04-30T09:37:10.303Z,1.40
2018-04-30T09:38:10.507Z,1.10
2018-04-30T09:39:10.330Z,1.20
2018-04-30T09:40:10.343Z,1.20
2018-04-30T09:41:10.356Z,1.10
2018-04-30T09:42:10.371Z,1.30
2018-04-30T09:43:10.382Z,1.30
2018-04-30T09:44:10.414Z,1.40
2018-04-30T09:45:10.408Z,1.10
2018-04-30T09:46:10.681Z,4.50
2018-04-30T09:47:10.433Z,1.50
2018-04-30T09:48:10.449Z,1.30
2018-04-30T09:49:10.526Z,1.20
2018-04-30T09:50:10.470Z,1.70
2018-04-30T09:51:10.482Z,1.50
2018-04-30T09:52:10.493Z,1.40
2018-04-30T09:53:10.507Z,1.20
2018-04-30T09:54:10.520Z,1.60
2018-04-30T09:55:10.534Z,1.70
2018-04-30T09:56:10.544Z,1.40
2018-04-30T09:57:10.559Z,1.60
2018-04-30T09:58:10.673Z,1.40
2018-04-30T09:59:10.582Z,1.40
2018-04-30T10:00:10.593Z,3.70
2018-04-30T10:01:10.605Z,3.00
2018-04-30T10:02:10.618Z,1.50
2018-04-30T10:03:10.629Z,2.90
2018-04-30T10:04:10.637Z,1.20
2018-04-30T10:05:10.648Z,2.00
2018-04-30T10:06:10.661Z,1.70
2018-04-30T10:07:10.749Z,2.00
2018-04-30T10:08:10.677Z,2.10
2018-04-30T10:09:10.685Z,5.10
2018-04-30T10:10:10.699Z,18.80
2018-04-30T10:11:10.719Z,2.00
2018-04-30T10:12:10.757Z,1.50
2018-04-30T10:13:10.761Z,1.00
2018-04-30T10:14:10.736Z,2.30
2018-04-30T10:15:10.734Z,2.10
2018-04-30T10:16:10.742Z,1.80
2018-04-30T10:17:11.293Z,1.50
2018-04-30T10:18:10.763Z,2.00
2018-04-30T10:19:10.769Z,1.40
2018-04-30T10:20:10.777Z,2.90
2018-04-30T10:21:10.787Z,1.80
2018-04-30T10:22:10.796Z,1.40
2018-04-30T10:23:10.805Z,1.70
2018-04-30T10:24:10.813Z,2.70
2018-04-30T10:25:10.843Z,2.40
2018-04-30T10:26:10.851Z,1.30
2018-04-30T10:27:10.872Z,3.00
2018-04-30T10:28:10.898Z,2.20
2018-04-30T10:29:10.985Z,1.50
2018-04-30T10:30:10.868Z,1.70
2018-04-30T10:31:10.872Z,1.20
2018-04-30T10:32:10.881Z,1.60
2018-04-30T10:33:10.890Z,1.50
2018-04-30T10:34:10.897Z,2.10
2018-04-30T10:35:10.905Z,1.70
2018-04-30T10:36:10.915Z,1.30
2018-04-30T10:37:10.926Z,2.70
2018-04-30T10:38:10.934Z,2.20
2018-04-30T10:39:10.943Z,1.40
2018-04-30T10:40:10.952Z,1.10
2018-04-30T10:41:10.962Z,3.20
2018-04-30T10:42:10.972Z,1.10
2018-04-30T10:43:10.982Z,1.40
2018-04-30T10:44:10.989Z,1.30
2018-04-30T10:45:11.039Z,1.20
2018-04-30T10:46:11.012Z,1.50
2018-04-30T10:47:11.023Z,4.10
2018-04-30T10:48:11.030Z,3.30
2018-04-30T10:49:11.040Z,1.20
2018-04-30T10:50:11.076Z,1.40
2018-04-30T10:51:11.060Z,1.30
2018-04-30T10:52:11.072Z,2.70
2018-04-30T10:53:11.081Z,2.50
2018-04-30T10:54:11.094Z,1.20
2018-04-30T10:55:11.100Z,1.80
2018-04-30T10:56:11.109Z,1.20
2018-04-30T10:57:11.119Z,1.50
2018-04-30T10:58:11.130Z,2.90
2018-04-30T10:59:11.141Z,1.10
2018-04-30T11:00:11.151Z,2.00
2018-04-30T11:01:11.166Z,2.30
2018-04-30T11:02:11.173Z,2.00
2018-04-30T11:03:11.185Z,2.30
2018-04-30T11:04:11.194Z,1.50
2018-04-30T11:05:11.208Z,2.00
2018-04-30T11:06:11.217Z,1.40
2018-04-30T11:07:11.230Z,1.20
2018-04-30T11:08:11.240Z,1.30
2018-04-30T11:09:11.249Z,1.80
2018-04-30T11:10:11.262Z,1.20
2018-04-30T11:11:11.270Z,1.50
2018-04-30T11:12:11.280Z,2.40
2018-04-30T11:13:11.347Z,1.30
2018-04-30T11:14:11.303Z,1.30
2018-04-30T11:15:11.358Z,1.10
2018-04-30T11:16:11.323Z,1.00
2018-04-30T11:17:11.336Z,1.10
2018-04-30T11:18:11.347Z,1.10
2018-04-30T11:19:11.358Z,1.30
2018-04-30T11:20:11.368Z,1.10
2018-04-30T11:21:11.380Z,1.10
2018-04-30T11:22:11.390Z,2.20
2018-04-30T11:23:11.401Z,1.00
2018-04-30T11:24:11.412Z,2.30
2018-04-30T11:25:11.423Z,1.50
2018-04-30T11:26:11.433Z,1.20
2018-04-30T11:27:11.442Z,2.40
2018-04-30T11:28:11.451Z,1.40
2018-04-30T11:29:11.461Z,1.90
2018-04-30T11:30:11.472Z,1.70
2018-04-30T11:31:11.482Z,2.40
2018-04-30T11:32:11.491Z,1.20
2018-04-30T11:33:11.503Z,1.30
2018-04-30T11:34:11.597Z,6.60
2018-04-30T11:35:11.522Z,3.70
2018-04-30T11:36:11.531Z,4.20
2018-04-30T11:37:11.542Z,1.30
2018-04-30T11:38:11.557Z,2.80
2018-04-30T11:39:11.637Z,7.10
2018-04-30T11:40:11.570Z,1.60
2018-04-30T11:41:11.582Z,1.60
2018-04-30T11:42:11.591Z,1.20
2018-04-30T11:43:11.602Z,1.20
2018-04-30T11:44:11.611Z,1.30
2018-04-30T11:45:11.621Z,2.70
2018-04-30T11:46:11.631Z,1.20
2018-04-30T11:47:11.662Z,1.50
2018-04-30T11:48:11.650Z,3.10
2018-04-30T11:49:11.660Z,1.00
2018-04-30T11:50:11.670Z,2.30
2018-04-30T11:51:11.681Z,1.70
2018-04-30T11:52:11.689Z,1.50
2018-04-30T11:53:11.699Z,1.40
2018-04-30T11:54:11.709Z,1.70
2018-04-30T11:55:11.719Z,1.30
2018-04-30T11:56:11.731Z,2.40
2018-04-30T11:57:11.738Z,1.40
2018-04-30T11:58:11.748Z,1.10
2018-04-30T11:59:11.767Z,1.40
2018-04-30T12:00:11.767Z,1.10
2018-04-30T12:01:11.779Z,1.10
2018-04-30T12:02:11.786Z,1.00
2018-04-30T12:03:11.795Z,1.30
2018-04-30T12:04:11.804Z,1.40
2018-04-30T12:05:11.813Z,1.40
2018-04-30T12:06:11.821Z,6.00
2018-04-30T12:07:11.831Z,1.20
2018-04-30T12:08:11.840Z,3.00
2018-04-30T12:09:11.847Z,1.20
2018-04-30T12:10:11.857Z,1.80
2018-04-30T12:11:11.865Z,1.30
2018-04-30T12:12:11.875Z,2.20
2018-04-30T12:13:11.883Z,1.40
2018-04-30T12:14:11.892Z,1.60
2018-04-30T12:15:12.169Z,1.10
2018-04-30T12:16:11.910Z,1.10
2018-04-30T12:17:12.019Z,2.10
2018-04-30T12:18:11.933Z,3.50
2018-04-30T12:19:11.941Z,3.60
2018-04-30T12:20:11.946Z,3.00
2018-04-30T12:21:11.956Z,1.50
2018-04-30T12:22:11.974Z,5.60
2018-04-30T12:23:11.973Z,2.30
2018-04-30T12:24:11.981Z,2.80
2018-04-30T12:25:12.112Z,2.60
2018-04-30T12:26:11.999Z,2.50
2018-04-30T12:27:12.006Z,1.30
2018-04-30T12:28:12.012Z,1.30
2018-04-30T12:29:12.019Z,3.60
2018-04-30T12:30:12.035Z,1.10
2018-04-30T12:31:12.035Z,3.90
2018-04-30T12:32:12.041Z,1.30
2018-04-30T12:33:12.047Z,1.20
2018-04-30T12:34:12.056Z,2.70
2018-04-30T12:35:12.063Z,1.10
2018-04-30T12:36:12.163Z,1.10
2018-04-30T12:37:12.076Z,1.40
2018-04-30T12:38:12.142Z,1.30
2018-04-30T12:39:12.090Z,1.10
2018-04-30T12:40:12.095Z,1.60
2018-04-30T12:41:12.102Z,2.90
2018-04-30T12:42:12.109Z,2.00
2018-04-30T12:43:12.116Z,1.20
2018-04-30T12:44:12.124Z,1.60
2018-04-30T12:45:12.130Z,1.20
2018-04-30T12:46:12.134Z,1.30
2018-04-30T12:47:12.141Z,1.60
2018-04-30T12:48:12.408Z,2.70
2018-04-30T12:49:12.153Z,1.70
2018-04-30T12:50:12.160Z,1.30
2018-04-30T12:51:12.167Z,1.10
2018-04-30T12:52:12.171Z,1.50
2018-04-30T12:53:12.181Z,3.90
2018-04-30T12:54:12.460Z,13.60
2018-04-30T12:55:12.191Z,1.30
2018-04-30T12:56:12.196Z,1.40
2018-04-30T12:57:12.203Z,1.40
2018-04-30T12:58:12.210Z,1.30
2018-04-30T12:59:12.219Z,2.20
2018-04-30T13:00:12.225Z,1.50
2018-04-30T13:01:12.231Z,2.70
2018-04-30T13:02:12.290Z,1.90
2018-04-30T13:03:12.247Z,1.60
2018-04-30T13:04:12.253Z,1.40
2018-04-30T13:05:12.264Z,1.50
2018-04-30T13:06:12.271Z,3.30
2018-04-30T13:07:12.275Z,2.10
2018-04-30T13:08:12.281Z,1.20
2018-04-30T13:09:12.295Z,1.70
2018-04-30T13:10:12.297Z,1.20
2018-04-30T13:11:12.850Z,1.50
2018-04-30T13:12:12.309Z,2.80
2018-04-30T13:13:12.319Z,2.70
2018-04-30T13:14:12.322Z,1.60
2018-04-30T13:15:12.329Z,1.80
2018-04-30T13:16:12.336Z,1.20
2018-04-30T13:17:12.341Z,1.70